sensor_id;sensor_type;location;lat;lon;timestamp;pressure;altitude;pressure_sealevel;temperature;humidity
70072;BME280;57434;42.794;23.302;2022-09-02T00:01:15;95243.38;;;18.83;76.64
70072;BME280;57434;42.794;23.302;2022-09-02T00:03:42;95361.53;;;19.69;77.06
70072;BME280;57434;42.794;23.302;2022-09-02T00:06:09;95319.69;;;19.49;76.75
70072;BME280;57434;42.794;23.302;2022-09-02T00:08:34;95179.75;;;18.57;76.37
70072;BME280;57434;42.794;23.302;2022-09-02T00:11:01;95208.31;;;18.80;76.76
70072;BME280;57434;42.794;23.302;2022-09-02T00:13:28;95337.28;;;19.83;76.31
70072;BME280;57434;42.794;23.302;2022-09-02T00:15:55;95233.88;;;19.09;76.40
70072;BME280;57434;42.794;23.302;2022-09-02T00:18:20;95240.69;;;19.06;76.45
70072;BME280;57434;42.794;23.302;2022-09-02T00:20:47;95133.81;;;18.46;76.55
70072;BME280;57434;42.794;23.302;2022-09-02T00:23:14;95325.69;;;19.74;76.57
70072;BME280;57434;42.794;23.302;2022-09-02T00:25:41;95342.41;;;19.77;77.11
70072;BME280;57434;42.794;23.302;2022-09-02T00:28:09;95224.47;;;18.85;77.38
70072;BME280;57434;42.794;23.302;2022-09-02T00:30:36;95346.38;;;19.82;77.28
70072;BME280;57434;42.794;23.302;2022-09-02T00:33:02;95198.38;;;18.66;77.88
70072;BME280;57434;42.794;23.302;2022-09-02T00:35:27;95247.97;;;19.14;77.61
70072;BME280;57434;42.794;23.302;2022-09-02T00:37:53;95300.69;;;19.44;77.24
70072;BME280;57434;42.794;23.302;2022-09-02T00:40:19;95265.84;;;19.22;77.29
70072;BME280;57434;42.794;23.302;2022-09-02T00:42:45;95254.91;;;19.06;77.52
70072;BME280;57434;42.794;23.302;2022-09-02T00:45:11;95262.28;;;19.01;78.23
70072;BME280;57434;42.794;23.302;2022-09-02T00:47:37;95364.03;;;19.44;79.01
70072;BME280;57434;42.794;23.302;2022-09-02T00:50:09;95295.38;;;18.70;79.40
70072;BME280;57434;42.794;23.302;2022-09-02T00:52:45;95399.94;;;19.34;78.79
70072;BME280;57434;42.794;23.302;2022-09-02T00:57:40;95368.22;;;19.02;79.17
70072;BME280;57434;42.794;23.302;2022-09-02T01:00:17;95378.41;;;18.97;79.53
70072;BME280;57434;42.794;23.302;2022-09-02T01:02:47;95246.31;;;18.07;79.60
70072;BME280;57434;42.794;23.302;2022-09-02T01:05:15;95373.34;;;19.03;79.67
70072;BME280;57434;42.794;23.302;2022-09-02T01:07:42;95276.38;;;18.23;79.69
70072;BME280;57434;42.794;23.302;2022-09-02T01:10:23;95384.06;;;18.89;79.95
70072;BME280;57434;42.794;23.302;2022-09-02T01:12:54;95377.75;;;18.83;80.37
70072;BME280;57434;42.794;23.302;2022-09-02T01:15:20;95302.16;;;18.25;80.26
70072;BME280;57434;42.794;23.302;2022-09-02T01:17:48;95376.22;;;18.82;80.30
70072;BME280;57434;42.794;23.302;2022-09-02T01:20:20;95379.13;;;18.69;80.79
70072;BME280;57434;42.794;23.302;2022-09-02T01:22:47;95294.56;;;17.86;81.82
70072;BME280;57434;42.794;23.302;2022-09-02T01:25:16;95283.38;;;17.88;81.72
70072;BME280;57434;42.794;23.302;2022-09-02T01:27:43;95238.50;;;17.66;81.82
70072;BME280;57434;42.794;23.302;2022-09-02T01:30:12;95240.38;;;17.50;81.73
70072;BME280;57434;42.794;23.302;2022-09-02T01:32:39;95391.53;;;18.58;82.05
70072;BME280;57434;42.794;23.302;2022-09-02T01:35:05;95386.06;;;18.47;82.61
70072;BME280;57434;42.794;23.302;2022-09-02T01:37:31;95266.75;;;17.58;82.54
70072;BME280;57434;42.794;23.302;2022-09-02T01:39:57;95251.47;;;17.62;82.84
70072;BME280;57434;42.794;23.302;2022-09-02T01:42:23;95384.84;;;18.56;83.49
70072;BME280;57434;42.794;23.302;2022-09-02T01:44:49;95200.34;;;16.93;83.60
70072;BME280;57434;42.794;23.302;2022-09-02T01:47:21;95388.69;;;18.45;84.18
70072;BME280;57434;42.794;23.302;2022-09-02T01:49:48;95401.56;;;18.46;84.42
70072;BME280;57434;42.794;23.302;2022-09-02T01:52:15;95390.66;;;18.50;84.51
70072;BME280;57434;42.794;23.302;2022-09-02T01:54:41;95280.38;;;17.73;84.73
70072;BME280;57434;42.794;23.302;2022-09-02T01:57:07;95389.44;;;18.46;85.28
70072;BME280;57434;42.794;23.302;2022-09-02T01:59:33;95255.66;;;17.47;85.17
70072;BME280;57434;42.794;23.302;2022-09-02T02:01:58;95274.72;;;17.73;85.04
70072;BME280;57434;42.794;23.302;2022-09-02T02:04:24;95271.41;;;17.82;84.08
70072;BME280;57434;42.794;23.302;2022-09-02T02:06:50;95381.84;;;18.41;84.53
70072;BME280;57434;42.794;23.302;2022-09-02T02:09:17;95262.19;;;17.55;84.59
70072;BME280;57434;42.794;23.302;2022-09-02T02:11:43;95253.03;;;17.36;85.35
70072;BME280;57434;42.794;23.302;2022-09-02T02:14:10;95216.44;;;17.12;84.60
70072;BME280;57434;42.794;23.302;2022-09-02T02:16:36;95174.38;;;16.50;85.11
70072;BME280;57434;42.794;23.302;2022-09-02T02:19:02;95265.50;;;17.07;86.06
70072;BME280;57434;42.794;23.302;2022-09-02T02:21:28;95175.25;;;16.58;85.88
70072;BME280;57434;42.794;23.302;2022-09-02T02:23:53;95246.75;;;17.17;85.75
70072;BME280;57434;42.794;23.302;2022-09-02T02:26:19;95244.44;;;17.15;85.41
70072;BME280;57434;42.794;23.302;2022-09-02T02:28:45;95323.59;;;17.53;85.87
70072;BME280;57434;42.794;23.302;2022-09-02T02:31:11;95194.25;;;16.76;86.19
70072;BME280;57434;42.794;23.302;2022-09-02T02:33:37;95300.91;;;17.53;86.57
70072;BME280;57434;42.794;23.302;2022-09-02T02:36:04;95326.53;;;17.74;86.89
70072;BME280;57434;42.794;23.302;2022-09-02T02:38:33;95289.88;;;17.63;86.42
70072;BME280;57434;42.794;23.302;2022-09-02T02:40:59;95171.09;;;16.59;87.46
70072;BME280;57434;42.794;23.302;2022-09-02T02:43:26;95207.06;;;16.64;88.10
70072;BME280;57434;42.794;23.302;2022-09-02T02:45:52;95310.50;;;17.50;88.29
70072;BME280;57434;42.794;23.302;2022-09-02T02:48:20;95207.38;;;16.60;88.98
70072;BME280;57434;42.794;23.302;2022-09-02T02:50:45;95340.41;;;17.64;89.67
70072;BME280;57434;42.794;23.302;2022-09-02T02:53:12;95218.09;;;16.94;89.61
70072;BME280;57434;42.794;23.302;2022-09-02T02:55:38;95205.88;;;17.12;88.39
70072;BME280;57434;42.794;23.302;2022-09-02T02:58:04;95329.44;;;18.28;87.03
70072;BME280;57434;42.794;23.302;2022-09-02T03:00:31;95335.53;;;18.12;86.93
70072;BME280;57434;42.794;23.302;2022-09-02T03:03:00;95345.91;;;17.96;87.80
70072;BME280;57434;42.794;23.302;2022-09-02T03:05:27;95234.19;;;17.25;87.76
70072;BME280;57434;42.794;23.302;2022-09-02T03:07:53;95334.91;;;17.92;87.65
70072;BME280;57434;42.794;23.302;2022-09-02T03:10:19;95282.16;;;17.50;87.41
70072;BME280;57434;42.794;23.302;2022-09-02T03:12:46;95319.13;;;17.57;87.75
70072;BME280;57434;42.794;23.302;2022-09-02T03:15:13;95218.44;;;16.77;87.73
70072;BME280;57434;42.794;23.302;2022-09-02T03:17:50;95190.97;;;16.72;87.95
70072;BME280;57434;42.794;23.302;2022-09-02T03:20:16;95348.59;;;17.81;87.79
70072;BME280;57434;42.794;23.302;2022-09-02T03:22:44;95357.97;;;17.76;88.07
70072;BME280;57434;42.794;23.302;2022-09-02T03:25:11;95184.41;;;16.64;87.71
70072;BME280;57434;42.794;23.302;2022-09-02T03:27:38;95338.13;;;17.63;88.07
70072;BME280;57434;42.794;23.302;2022-09-02T03:30:08;95239.56;;;16.76;88.67
70072;BME280;57434;42.794;23.302;2022-09-02T03:32:35;95264.97;;;16.95;88.52
70072;BME280;57434;42.794;23.302;2022-09-02T03:35:02;95162.06;;;16.34;87.77
70072;BME280;57434;42.794;23.302;2022-09-02T03:37:28;95244.88;;;17.06;87.42
70072;BME280;57434;42.794;23.302;2022-09-02T03:39:54;95273.78;;;17.18;87.26
70072;BME280;57434;42.794;23.302;2022-09-02T03:42:20;95381.94;;;17.88;87.42
70072;BME280;57434;42.794;23.302;2022-09-02T03:44:46;95352.06;;;17.87;87.28
70072;BME280;57434;42.794;23.302;2022-09-02T03:47:12;95349.00;;;17.85;87.16
70072;BME280;57434;42.794;23.302;2022-09-02T03:49:39;95364.03;;;17.93;87.10
70072;BME280;57434;42.794;23.302;2022-09-02T03:52:05;95348.81;;;17.83;87.49
70072;BME280;57434;42.794;23.302;2022-09-02T03:54:31;95370.91;;;17.98;87.15
70072;BME280;57434;42.794;23.302;2022-09-02T03:56:57;95275.63;;;17.29;87.00
70072;BME280;57434;42.794;23.302;2022-09-02T03:59:22;95268.66;;;17.16;87.44
70072;BME280;57434;42.794;23.302;2022-09-02T04:01:49;95274.22;;;17.09;87.41
70072;BME280;57434;42.794;23.302;2022-09-02T04:04:17;95377.41;;;17.85;87.12
70072;BME280;57434;42.794;23.302;2022-09-02T04:06:43;95279.66;;;17.20;87.27
70072;BME280;57434;42.794;23.302;2022-09-02T04:09:09;95253.72;;;16.89;87.63
70072;BME280;57434;42.794;23.302;2022-09-02T04:11:34;95428.88;;;17.89;87.49
70072;BME280;57434;42.794;23.302;2022-09-02T04:14:01;95275.66;;;17.02;87.67
70072;BME280;57434;42.794;23.302;2022-09-02T04:16:27;95406.09;;;17.81;87.89
70072;BME280;57434;42.794;23.302;2022-09-02T04:18:55;95406.66;;;17.80;88.30
70072;BME280;57434;42.794;23.302;2022-09-02T04:21:22;95268.34;;;16.93;88.44
70072;BME280;57434;42.794;23.302;2022-09-02T04:23:48;95272.81;;;17.02;88.33
70072;BME280;57434;42.794;23.302;2022-09-02T04:26:16;95394.28;;;17.90;87.88
70072;BME280;57434;42.794;23.302;2022-09-02T04:28:43;95358.41;;;17.53;88.05
70072;BME280;57434;42.794;23.302;2022-09-02T04:31:11;95418.28;;;17.89;88.18
70072;BME280;57434;42.794;23.302;2022-09-02T04:33:38;95414.38;;;17.92;88.17
70072;BME280;57434;42.794;23.302;2022-09-02T04:36:09;95297.34;;;17.00;88.30
70072;BME280;57434;42.794;23.302;2022-09-02T04:38:35;95402.06;;;17.77;88.54
70072;BME280;57434;42.794;23.302;2022-09-02T04:41:09;95351.53;;;17.62;88.04
70072;BME280;57434;42.794;23.302;2022-09-02T04:43:36;95319.81;;;17.24;87.73
70072;BME280;57434;42.794;23.302;2022-09-02T04:46:04;95309.66;;;17.15;88.77
70072;BME280;57434;42.794;23.302;2022-09-02T04:48:31;95408.91;;;17.94;89.15
70072;BME280;57434;42.794;23.302;2022-09-02T04:50:57;95319.34;;;17.33;88.88
70072;BME280;57434;42.794;23.302;2022-09-02T04:53:22;95293.19;;;17.27;88.62
70072;BME280;57434;42.794;23.302;2022-09-02T04:55:48;95316.09;;;17.16;88.68
70072;BME280;57434;42.794;23.302;2022-09-02T04:58:14;95318.47;;;17.38;88.45
70072;BME280;57434;42.794;23.302;2022-09-02T05:00:41;95410.00;;;17.91;88.55
70072;BME280;57434;42.794;23.302;2022-09-02T05:03:07;95423.53;;;18.12;88.06
70072;BME280;57434;42.794;23.302;2022-09-02T05:05:33;95428.44;;;18.11;88.27
70072;BME280;57434;42.794;23.302;2022-09-02T05:08:00;95323.06;;;17.41;87.59
70072;BME280;57434;42.794;23.302;2022-09-02T05:10:29;95284.78;;;17.21;87.04
70072;BME280;57434;42.794;23.302;2022-09-02T05:12:56;95352.06;;;17.60;86.94
70072;BME280;57434;42.794;23.302;2022-09-02T05:15:22;95426.00;;;18.15;87.14
70072;BME280;57434;42.794;23.302;2022-09-02T05:17:48;95344.53;;;17.50;87.77
70072;BME280;57434;42.794;23.302;2022-09-02T05:20:13;95410.75;;;17.92;87.46
70072;BME280;57434;42.794;23.302;2022-09-02T05:22:39;95448.94;;;18.17;87.71
70072;BME280;57434;42.794;23.302;2022-09-02T05:25:06;95441.72;;;18.30;87.83
70072;BME280;57434;42.794;23.302;2022-09-02T05:27:34;95326.53;;;17.47;87.44
70072;BME280;57434;42.794;23.302;2022-09-02T05:30:01;95328.41;;;17.45;87.40
70072;BME280;57434;42.794;23.302;2022-09-02T05:32:28;95431.13;;;18.30;88.33
70072;BME280;57434;42.794;23.302;2022-09-02T05:34:54;95437.25;;;18.34;88.44
70072;BME280;57434;42.794;23.302;2022-09-02T05:37:20;95435.00;;;18.06;88.92
70072;BME280;57434;42.794;23.302;2022-09-02T05:39:46;95447.09;;;18.20;88.58
70072;BME280;57434;42.794;23.302;2022-09-02T05:42:11;95398.56;;;17.71;88.32
70072;BME280;57434;42.794;23.302;2022-09-02T05:44:37;95445.47;;;18.11;89.34
70072;BME280;57434;42.794;23.302;2022-09-02T05:47:03;95337.13;;;17.34;88.54
70072;BME280;57434;42.794;23.302;2022-09-02T05:49:30;95353.06;;;17.63;88.38
70072;BME280;57434;42.794;23.302;2022-09-02T05:51:58;95437.25;;;18.21;88.77
70072;BME280;57434;42.794;23.302;2022-09-02T05:54:28;95445.00;;;18.34;88.25
70072;BME280;57434;42.794;23.302;2022-09-02T05:56:57;95415.84;;;18.20;88.20
70072;BME280;57434;42.794;23.302;2022-09-02T05:59:25;95332.00;;;17.72;89.20
70072;BME280;57434;42.794;23.302;2022-09-02T06:01:52;95306.47;;;17.72;88.13
70072;BME280;57434;42.794;23.302;2022-09-02T06:04:18;95384.41;;;18.18;88.10
70072;BME280;57434;42.794;23.302;2022-09-02T06:06:44;95441.38;;;18.80;86.78
70072;BME280;57434;42.794;23.302;2022-09-02T06:09:16;95423.09;;;18.89;85.70
70072;BME280;57434;42.794;23.302;2022-09-02T06:11:42;95311.00;;;18.22;86.30
70072;BME280;57434;42.794;23.302;2022-09-02T06:14:19;95300.13;;;18.13;86.82
70072;BME280;57434;42.794;23.302;2022-09-02T06:16:46;95429.66;;;19.05;85.49
70072;BME280;57434;42.794;23.302;2022-09-02T06:19:13;95424.81;;;18.92;85.83
70072;BME280;57434;42.794;23.302;2022-09-02T06:21:39;95450.75;;;19.09;85.78
70072;BME280;57434;42.794;23.302;2022-09-02T06:24:08;95345.63;;;18.54;85.19
70072;BME280;57434;42.794;23.302;2022-09-02T06:26:35;95337.41;;;18.64;84.92
70072;BME280;57434;42.794;23.302;2022-09-02T06:29:02;95329.44;;;18.63;84.02
70072;BME280;57434;42.794;23.302;2022-09-02T06:31:28;95235.00;;;17.60;84.58
70072;BME280;57434;42.794;23.302;2022-09-02T06:33:55;95436.03;;;18.77;85.09
70072;BME280;57434;42.794;23.302;2022-09-02T06:36:23;95362.03;;;18.14;85.73
70072;BME280;57434;42.794;23.302;2022-09-02T06:38:51;95343.78;;;18.44;85.31
70072;BME280;57434;42.794;23.302;2022-09-02T06:41:20;95436.94;;;19.34;83.04
70072;BME280;57434;42.794;23.302;2022-09-02T06:43:48;95466.59;;;19.39;82.73
70072;BME280;57434;42.794;23.302;2022-09-02T06:46:17;95386.75;;;18.74;84.94
70072;BME280;57434;42.794;23.302;2022-09-02T06:48:43;95426.91;;;19.12;84.07
70072;BME280;57434;42.794;23.302;2022-09-02T06:51:15;95417.03;;;19.13;83.43
70072;BME280;57434;42.794;23.302;2022-09-02T06:53:41;95459.59;;;19.40;82.38
70072;BME280;57434;42.794;23.302;2022-09-02T06:56:07;95374.69;;;18.81;82.06
70072;BME280;57434;42.794;23.302;2022-09-02T06:58:32;95426.00;;;19.17;81.88
70072;BME280;57434;42.794;23.302;2022-09-02T07:00:58;95462.50;;;19.47;80.59
70072;BME280;57434;42.794;23.302;2022-09-02T07:03:24;95470.94;;;19.60;79.58
70072;BME280;57434;42.794;23.302;2022-09-02T07:06:09;95462.31;;;19.74;78.63
70072;BME280;57434;42.794;23.302;2022-09-02T07:08:36;95480.38;;;19.35;80.33
70072;BME280;57434;42.794;23.302;2022-09-02T07:11:04;95471.84;;;19.35;80.80
70072;BME280;57434;42.794;23.302;2022-09-02T07:13:30;95485.81;;;19.46;80.00
70072;BME280;57434;42.794;23.302;2022-09-02T07:15:56;95367.69;;;18.48;80.29
70072;BME280;57434;42.794;23.302;2022-09-02T07:18:22;95481.69;;;19.34;80.67
70072;BME280;57434;42.794;23.302;2022-09-02T07:20:47;95495.44;;;19.64;79.55
70072;BME280;57434;42.794;23.302;2022-09-02T07:23:14;95473.59;;;19.38;80.23
70072;BME280;57434;42.794;23.302;2022-09-02T07:25:40;95353.47;;;18.82;79.25
70072;BME280;57434;42.794;23.302;2022-09-02T07:28:07;95333.91;;;18.79;79.51
70072;BME280;57434;42.794;23.302;2022-09-02T07:30:33;95471.56;;;19.95;76.68
70072;BME280;57434;42.794;23.302;2022-09-02T07:32:59;95478.16;;;19.61;76.31
70072;BME280;57434;42.794;23.302;2022-09-02T07:35:26;95359.88;;;19.24;77.63
70072;BME280;57434;42.794;23.302;2022-09-02T07:37:52;95367.00;;;18.89;76.37
70072;BME280;57434;42.794;23.302;2022-09-02T07:40:18;95395.91;;;19.22;76.45
70072;BME280;57434;42.794;23.302;2022-09-02T07:42:43;95375.31;;;19.37;76.90
70072;BME280;57434;42.794;23.302;2022-09-02T07:45:10;95417.53;;;19.74;78.23
70072;BME280;57434;42.794;23.302;2022-09-02T07:47:36;95439.94;;;20.14;76.66
70072;BME280;57434;42.794;23.302;2022-09-02T07:50:03;95356.69;;;19.92;75.12
70072;BME280;57434;42.794;23.302;2022-09-02T07:52:29;95446.06;;;20.61;74.14
70072;BME280;57434;42.794;23.302;2022-09-02T07:54:55;95410.13;;;20.51;73.38
70072;BME280;57434;42.794;23.302;2022-09-02T07:57:21;95386.00;;;20.08;71.78
70072;BME280;57434;42.794;23.302;2022-09-02T07:59:46;95336.22;;;19.94;72.09
70072;BME280;57434;42.794;23.302;2022-09-02T08:02:12;95370.63;;;20.11;72.13
70072;BME280;57434;42.794;23.302;2022-09-02T08:04:39;95381.22;;;20.39;71.87
70072;BME280;57434;42.794;23.302;2022-09-02T08:07:04;95373.41;;;20.32;71.20
70072;BME280;57434;42.794;23.302;2022-09-02T08:09:31;95484.81;;;21.16;68.84
70072;BME280;57434;42.794;23.302;2022-09-02T08:11:57;95502.13;;;21.10;68.51
70072;BME280;57434;42.794;23.302;2022-09-02T08:14:25;95509.22;;;20.73;69.64
70072;BME280;57434;42.794;23.302;2022-09-02T08:16:53;95489.81;;;20.28;71.20
70072;BME280;57434;42.794;23.302;2022-09-02T08:19:20;95495.94;;;20.11;72.45
70072;BME280;57434;42.794;23.302;2022-09-02T08:21:46;95506.81;;;20.49;71.59
70072;BME280;57434;42.794;23.302;2022-09-02T08:24:12;95385.63;;;20.12;71.49
70072;BME280;57434;42.794;23.302;2022-09-02T08:26:37;95405.28;;;20.23;72.00
70072;BME280;57434;42.794;23.302;2022-09-02T08:29:07;95408.72;;;20.29;68.04
70072;BME280;57434;42.794;23.302;2022-09-02T08:31:36;95487.97;;;20.89;68.25
70072;BME280;57434;42.794;23.302;2022-09-02T08:34:01;95414.78;;;20.25;68.40
70072;BME280;57434;42.794;23.302;2022-09-02T08:36:27;95507.16;;;20.89;68.34
70072;BME280;57434;42.794;23.302;2022-09-02T08:38:53;95401.19;;;20.47;69.20
70072;BME280;57434;42.794;23.302;2022-09-02T08:41:24;95489.59;;;21.21;70.12
70072;BME280;57434;42.794;23.302;2022-09-02T08:43:52;95368.88;;;20.44;70.25
70072;BME280;57434;42.794;23.302;2022-09-02T08:46:21;95339.63;;;20.44;69.24
70072;BME280;57434;42.794;23.302;2022-09-02T08:49:17;95483.91;;;21.51;68.83
70072;BME280;57434;42.794;23.302;2022-09-02T08:51:48;95494.00;;;21.75;66.32
70072;BME280;57434;42.794;23.302;2022-09-02T08:54:42;95488.66;;;21.72;66.18
70072;BME280;57434;42.794;23.302;2022-09-02T08:57:10;95439.38;;;21.33;67.25
70072;BME280;57434;42.794;23.302;2022-09-02T08:59:37;95477.09;;;21.85;67.41
70072;BME280;57434;42.794;23.302;2022-09-02T09:05:02;95477.81;;;22.01;65.43
70072;BME280;57434;42.794;23.302;2022-09-02T09:10:45;95474.78;;;21.91;66.89
70072;BME280;57434;42.794;23.302;2022-09-02T09:16:27;95476.28;;;22.00;66.73
70072;BME280;57434;42.794;23.302;2022-09-02T09:19:13;95341.59;;;21.17;66.85
70072;BME280;57434;42.794;23.302;2022-09-02T09:21:40;95469.44;;;21.49;66.87
70072;BME280;57434;42.794;23.302;2022-09-02T09:24:25;95468.50;;;21.85;66.96
70072;BME280;57434;42.794;23.302;2022-09-02T09:26:53;95357.97;;;21.24;67.35
70072;BME280;57434;42.794;23.302;2022-09-02T09:29:19;95385.75;;;21.32;64.47
70072;BME280;57434;42.794;23.302;2022-09-02T09:31:53;95464.91;;;21.84;66.07
70072;BME280;57434;42.794;23.302;2022-09-02T09:34:20;95263.84;;;20.71;65.82
70072;BME280;57434;42.794;23.302;2022-09-02T09:36:49;95457.44;;;22.04;66.54
70072;BME280;57434;42.794;23.302;2022-09-02T09:39:20;95379.44;;;21.56;65.68
70072;BME280;57434;42.794;23.302;2022-09-02T09:41:47;95363.88;;;21.42;66.56
70072;BME280;57434;42.794;23.302;2022-09-02T09:44:37;95459.34;;;22.09;65.74
70072;BME280;57434;42.794;23.302;2022-09-02T09:47:23;95450.41;;;21.98;67.30
70072;BME280;57434;42.794;23.302;2022-09-02T09:50:15;95283.81;;;21.02;66.78
70072;BME280;57434;42.794;23.302;2022-09-02T09:52:41;95336.66;;;21.33;66.53
70072;BME280;57434;42.794;23.302;2022-09-02T09:55:19;95457.06;;;22.00;64.77
70072;BME280;57434;42.794;23.302;2022-09-02T09:57:47;95462.19;;;22.17;66.11
70072;BME280;57434;42.794;23.302;2022-09-02T10:00:26;95465.03;;;22.17;65.11
70072;BME280;57434;42.794;23.302;2022-09-02T10:02:55;95452.00;;;22.39;64.85
70072;BME280;57434;42.794;23.302;2022-09-02T10:08:00;95456.19;;;22.38;65.42
70072;BME280;57434;42.794;23.302;2022-09-02T10:10:29;95317.59;;;21.58;63.97
70072;BME280;57434;42.794;23.302;2022-09-02T10:13:19;95461.66;;;22.58;64.31
70072;BME280;57434;42.794;23.302;2022-09-02T10:27:10;95448.31;;;22.61;62.39
70072;BME280;57434;42.794;23.302;2022-09-02T10:32:38;95444.25;;;22.24;62.43
70072;BME280;57434;42.794;23.302;2022-09-02T10:40:43;95301.22;;;20.37;64.43
70072;BME280;57434;42.794;23.302;2022-09-02T10:46:20;95303.16;;;20.65;64.55
70072;BME280;57434;42.794;23.302;2022-09-02T10:49:16;95417.47;;;21.74;64.95
70072;BME280;57434;42.794;23.302;2022-09-02T10:57:22;95369.63;;;22.05;63.87
70072;BME280;57434;42.794;23.302;2022-09-02T11:02:46;95437.31;;;22.50;62.86
70072;BME280;57434;42.794;23.302;2022-09-02T11:05:27;95351.72;;;22.12;62.07
70072;BME280;57434;42.794;23.302;2022-09-02T11:08:06;95348.38;;;21.83;63.44
70072;BME280;57434;42.794;23.302;2022-09-02T11:10:39;95449.28;;;22.56;64.26
70072;BME280;57434;42.794;23.302;2022-09-02T11:13:15;95431.44;;;22.33;62.86
70072;BME280;57434;42.794;23.302;2022-09-02T11:15:51;95338.84;;;21.73;62.83
70072;BME280;57434;42.794;23.302;2022-09-02T11:24:05;95440.69;;;22.63;63.62
70072;BME280;57434;42.794;23.302;2022-09-02T11:26:52;95391.59;;;22.42;63.26
70072;BME280;57434;42.794;23.302;2022-09-02T11:29:39;95426.38;;;22.63;62.06
70072;BME280;57434;42.794;23.302;2022-09-02T11:32:46;95425.91;;;22.82;61.91
70072;BME280;57434;42.794;23.302;2022-09-02T11:35:26;95429.63;;;23.00;61.18
70072;BME280;57434;42.794;23.302;2022-09-02T11:45:57;95428.31;;;23.51;58.98
70072;BME280;57434;42.794;23.302;2022-09-02T11:53:55;95397.47;;;24.53;55.74
70072;BME280;57434;42.794;23.302;2022-09-02T11:56:23;95398.94;;;24.88;57.59
70072;BME280;57434;42.794;23.302;2022-09-02T11:58:51;95316.34;;;23.99;58.21
70072;BME280;57434;42.794;23.302;2022-09-02T12:03:51;95363.84;;;24.19;57.67
70072;BME280;57434;42.794;23.302;2022-09-02T12:06:19;95309.09;;;24.15;57.52
70072;BME280;57434;42.794;23.302;2022-09-02T12:08:55;95396.84;;;24.72;56.94
70072;BME280;57434;42.794;23.302;2022-09-02T12:11:48;95399.53;;;24.87;55.79
70072;BME280;57434;42.794;23.302;2022-09-02T12:17:06;95291.31;;;24.16;54.97
70072;BME280;57434;42.794;23.302;2022-09-02T12:27:48;95208.78;;;24.51;53.48
70072;BME280;57434;42.794;23.302;2022-09-02T12:33:32;95300.13;;;25.18;53.47
70072;BME280;57434;42.794;23.302;2022-09-02T12:35:58;95391.06;;;25.99;52.03
70072;BME280;57434;42.794;23.302;2022-09-02T12:38:35;95342.94;;;26.09;52.36
70072;BME280;57434;42.794;23.302;2022-09-02T12:43:51;95369.59;;;27.48;49.00
70072;BME280;57434;42.794;23.302;2022-09-02T12:51:52;95355.13;;;28.31;46.37
70072;BME280;57434;42.794;23.302;2022-09-02T12:54:25;95257.44;;;26.79;45.95
70072;BME280;57434;42.794;23.302;2022-09-02T12:56:52;95335.25;;;27.93;45.94
70072;BME280;57434;42.794;23.302;2022-09-02T12:59:27;95341.72;;;28.36;46.31
70072;BME280;57434;42.794;23.302;2022-09-02T13:02:08;95345.94;;;28.45;45.12
70072;BME280;57434;42.794;23.302;2022-09-02T13:23:56;95329.97;;;27.58;44.71
70072;BME280;57434;42.794;23.302;2022-09-02T13:32:22;95342.34;;;26.58;47.49
70072;BME280;57434;42.794;23.302;2022-09-02T13:34:48;95229.00;;;24.44;48.37
70072;BME280;57434;42.794;23.302;2022-09-02T13:37:32;95250.59;;;24.54;50.71
70072;BME280;57434;42.794;23.302;2022-09-02T13:40:00;95184.31;;;24.14;52.35
70072;BME280;57434;42.794;23.302;2022-09-02T13:42:28;95329.97;;;24.96;53.65
70072;BME280;57434;42.794;23.302;2022-09-02T13:45:15;95335.66;;;24.86;53.83
70072;BME280;57434;42.794;23.302;2022-09-02T13:47:43;95266.19;;;24.07;53.97
70072;BME280;57434;42.794;23.302;2022-09-02T13:50:12;95253.06;;;23.70;55.33
70072;BME280;57434;42.794;23.302;2022-09-02T13:52:40;95343.31;;;23.95;55.70
70072;BME280;57434;42.794;23.302;2022-09-02T13:55:09;95224.22;;;22.99;59.36
70072;BME280;57434;42.794;23.302;2022-09-02T13:57:37;95309.28;;;22.98;62.18
70072;BME280;57434;42.794;23.302;2022-09-02T14:00:03;95249.59;;;22.20;64.43
70072;BME280;57434;42.794;23.302;2022-09-02T14:02:32;95353.84;;;22.44;67.65
70072;BME280;57434;42.794;23.302;2022-09-02T14:05:02;95219.00;;;20.87;70.22
70072;BME280;57434;42.794;23.302;2022-09-02T14:07:32;95358.31;;;21.44;73.21
70072;BME280;57434;42.794;23.302;2022-09-02T14:10:05;95257.56;;;20.50;75.19
70072;BME280;57434;42.794;23.302;2022-09-02T14:12:33;95238.44;;;19.91;77.26
70072;BME280;57434;42.794;23.302;2022-09-02T14:15:01;95313.00;;;20.26;79.29
70072;BME280;57434;42.794;23.302;2022-09-02T14:17:27;95250.44;;;19.54;80.23
70072;BME280;57434;42.794;23.302;2022-09-02T14:20:15;95384.81;;;20.40;82.09
70072;BME280;57434;42.794;23.302;2022-09-02T14:22:42;95347.00;;;19.88;82.92
70072;BME280;57434;42.794;23.302;2022-09-02T14:25:13;95401.13;;;19.95;84.07
70072;BME280;57434;42.794;23.302;2022-09-02T14:27:56;95384.50;;;19.71;84.83
70072;BME280;57434;42.794;23.302;2022-09-02T14:30:34;95404.22;;;19.69;85.42
70072;BME280;57434;42.794;23.302;2022-09-02T14:41:18;95422.25;;;19.43;85.91
70072;BME280;57434;42.794;23.302;2022-09-02T14:43:54;95321.16;;;18.72;85.88
70072;BME280;57434;42.794;23.302;2022-09-02T14:46:31;95432.56;;;19.54;85.92
70072;BME280;57434;42.794;23.302;2022-09-02T14:48:59;95427.25;;;19.50;85.97
70072;BME280;57434;42.794;23.302;2022-09-02T14:51:31;95441.25;;;19.48;85.15
70072;BME280;57434;42.794;23.302;2022-09-02T14:53:59;95337.66;;;18.53;85.49
70072;BME280;57434;42.794;23.302;2022-09-02T14:56:50;95436.09;;;19.26;85.92
70072;BME280;57434;42.794;23.302;2022-09-02T14:59:17;95439.81;;;18.92;85.35
70072;BME280;57434;42.794;23.302;2022-09-02T15:01:46;95366.38;;;18.49;86.23
70072;BME280;57434;42.794;23.302;2022-09-02T15:04:13;95289.34;;;18.11;85.14